METAR Data
IDs: Format: Raw Decoded Include TAF

Data at: 1458 UTC 18 Aug 2019

PADE 181453Z AUTO 21007KT 10SM CLR 02/02 A3051 RMK AO2 SLP333 T00170017 56011 TSNO $
PADE 181353Z AUTO 22005KT 10SM CLR 02/02 A3052 RMK AO2 SLP337 T00170017 TSNO $
PADE 181253Z AUTO 22006KT 10SM CLR 02/02 A3053 RMK AO2 SLP340 T00220022 TSNO $
PADE 181153Z AUTO 21007KT 10SM CLR 03/03 A3055 RMK AO2 SLP344 T00280028 10106 20022 58009 TSNO $
PADE 181053Z AUTO 22004KT 10SM CLR 03/03 A3056 RMK AO2 SLP348 T00280028 TSNO $
PADE 180953Z AUTO 22004KT 10SM CLR 04/04 A3056 RMK AO2 SLP350 T00390039 TSNO $
PADE 180853Z AUTO 22005KT 10SM CLR 03/03 A3057 RMK AO2 SLP353 T00330033 401440033 56006 TSNO $
PADE 180753Z AUTO 20004KT 10SM CLR 06/06 A3058 RMK AO2 SLP354 T00560056 TSNO $
PADE 180653Z AUTO 21004KT 10SM CLR 08/07 A3058 RMK AO2 SLP357 T00780067 TSNO $
PADE 180553Z AUTO 00000KT 10SM CLR 11/07 A3059 RMK AO2 SLP359 T01060067 10144 20106 56009 TSNO $
PADE 180453Z AUTO 34004KT 10SM CLR 12/07 A3060 RMK AO2 SLP361 T01220072 TSNO $
PADE 180353Z AUTO 33005KT 10SM CLR 13/06 A3061 RMK AO2 SLP365 T01330056 TSNO $
PADE 180253Z AUTO 33006KT 10SM CLR 14/06 A3062 RMK AO2 SLP368 T01390061 56007 TSNO $
PADE 180153Z AUTO 34006KT 10SM CLR 14/06 A3062 RMK AO2 SLP369 T01440061 TSNO $
PADE 180053Z AUTO 34005KT 10SM CLR 14/07 A3063 RMK AO2 SLP374 T01390072 TSNO $
PADE 172353Z AUTO VRB04KT 10SM CLR 13/07 A3064 RMK AO2 SLP375 T01280072 10133 20089 58004 TSNO $
PADE 172253Z AUTO 00000KT 10SM CLR 13/07 A3065 RMK AO2 SLP378 T01280072 TSNO $
PADE 172153Z AUTO 00000KT 10SM CLR 13/08 A3065 RMK AO2 SLP379 T01330078 TSNO $
PADE 171953Z AUTO 32004KT 10SM CLR 12/08 A3065 RMK AO2 SLP379 T01220083 TSNO $
PADE 171853Z AUTO 25003KT 10SM CLR 12/07 A3064 RMK AO2 SLP376 T01170072 TSNO $
PADE 171753Z AUTO 19006KT 10SM CLR 09/09 A3063 RMK AO2 SLP373 T00890089 10089 20033 51007 TSNO $
PADE 171653Z AUTO 21006KT 10SM CLR 06/06 A3063 RMK AO2 SLP371 T00610061 TSNO $
PADE 171553Z AUTO 20008KT 10SM CLR 04/04 A3062 RMK AO2 SLP368 T00440044 TSNO $
PADE 171353Z AUTO 18004KT 10SM CLR 07/07 A3060 RMK AO2 SLP363 T00720072 TSNO $
PADE 171253Z AUTO 25009KT 10SM CLR 08/08 A3059 RMK AO2 SLP360 T00780078 TSNO $
PADE 171153Z AUTO 17006KT 10SM CLR 08/08 A3058 RMK AO2 SLP356 T00780078 10117 20067 51014 TSNO $
PADE 171053Z AUTO 25012KT 10SM CLR 08/08 A3057 RMK AO2 SLP352 T00830083 TSNO $
PADE 170953Z AUTO 20007KT 10SM CLR 08/08 A3056 RMK AO2 SLP349 T00830083 TSNO $
PADE 170853Z AUTO 21008KT 10SM CLR 07/07 A3054 RMK AO2 SLP342 T00670067 401280061 51015 TSNO $
PADE 170753Z AUTO 26004KT 10SM CLR 09/09 A3053 RMK AO2 SLP339 T00890089 TSNO $
PADE 170653Z AUTO 27011KT 10SM CLR 11/09 A3052 RMK AO2 SLP334 T01060094 TSNO $
PADE 170553Z AUTO 28012KT 10SM CLR 11/09 A3050 RMK AO2 SLP328 T01110089 10122 20111 53015 TSNO $
PADE 170453Z AUTO 28013KT 10SM CLR 12/08 A3048 RMK AO2 SLP320 T01170083 TSNO $
PADE 170353Z AUTO 29014KT 10SM SCT020 SCT026 BKN034 12/08 A3047 RMK AO2 SLP317 T01220078 TSNO $
PADE 170330Z AUTO 29015KT 10SM SCT020 OVC034 12/08 A3046 RMK AO2 T01220083 TSNO $